Time;durP1;ratioP1;P1;durP2;ratioP2;P2;SDS_P1;SDS_P2;PMS_P1;PMS_P2;Temp;Humidity;BMP_temperature;BMP_pressure;BME280_temperature;BME280_humidity;BME280_pressure;Samples;Min_cycle;Max_cycle;Signal;HPM_P1;HPM_P2
2021/05/21 00:01:09;;;;;;;11.45;6.57;;;;;;;-145.61;100.00;68426.72;4812949;29;20098;-96
2021/05/21 00:03:35;;;;;;;10.48;6.22;;;;;;;-145.61;100.00;68426.72;4815828;29;20031;-94
2021/05/21 00:06:00;;;;;;;13.98;6.53;;;;;;;-145.61;100.00;68426.72;4815745;29;20045;-95
2021/05/21 00:08:26;;;;;;;8.23;6.57;;;;;;;-145.61;100.00;68426.72;4815661;29;20030;-95
2021/05/21 00:10:52;;;;;;;9.60;6.10;;;;;;;-145.61;100.00;68426.72;4815780;29;20026;-95
2021/05/21 00:13:17;;;;;;;8.57;5.65;;;;;;;-145.61;100.00;68426.72;4815687;29;20033;-95
2021/05/21 00:15:43;;;;;;;7.70;6.18;;;;;;;-145.61;100.00;68426.72;4815612;29;20305;-96
2021/05/21 00:18:08;;;;;;;10.95;5.97;;;;;;;-145.61;100.00;68426.72;4815481;29;20030;-95
2021/05/21 00:20:34;;;;;;;10.70;5.38;;;;;;;-145.61;100.00;68426.72;4815404;29;20030;-95
2021/05/21 00:22:59;;;;;;;7.85;6.05;;;;;;;8.78;70.29;96196.09;4815333;29;20324;-95
2021/05/21 00:25:25;;;;;;;9.80;5.80;;;;;;;4.98;84.30;96165.94;4815465;29;20448;-95
2021/05/21 00:27:51;;;;;;;9.93;5.95;;;;;;;4.98;84.30;96165.94;4815288;29;20033;-96
2021/05/21 00:30:17;;;;;;;7.10;4.93;;;;;;;-145.61;100.00;68426.72;4815263;29;20091;-96
2021/05/21 00:32:43;;;;;;;8.27;5.13;;;;;;;-145.61;100.00;68426.72;4815109;29;20034;-93
2021/05/21 00:35:09;;;;;;;6.63;4.35;;;;;;;-145.61;100.00;68426.72;4815199;29;20040;-95
2021/05/21 00:37:35;;;;;;;7.97;5.28;;;;;;;-145.61;100.00;68426.72;4815033;29;20420;-95
2021/05/21 00:40:00;;;;;;;6.35;5.45;;;;;;;-145.61;100.00;68426.72;4815095;29;20041;-95
2021/05/21 00:42:26;;;;;;;7.80;6.03;;;;;;;-145.61;100.00;68426.72;4815137;29;20033;-96
2021/05/21 00:44:53;;;;;;;10.45;6.60;;;;;;;-145.61;100.00;68426.72;4815018;29;20031;-94
2021/05/21 00:47:19;;;;;;;10.25;6.40;;;;;;;-145.61;100.00;68426.72;4814755;29;20050;-93
2021/05/21 00:49:44;;;;;;;7.78;5.82;;;;;;;-145.61;100.00;68426.72;4815130;29;20041;-94
2021/05/21 00:52:10;;;;;;;10.32;5.75;;;;;;;-145.61;100.00;68426.72;4814880;29;20035;-94
2021/05/21 00:54:37;;;;;;;14.60;6.07;;;;;;;-145.61;100.00;68426.72;4815117;29;20042;-94
2021/05/21 00:57:05;;;;;;;57.22;8.75;;;;;;;4.98;84.30;96165.94;4815044;29;20415;-95
2021/05/21 00:59:31;;;;;;;7.97;5.00;;;;;;;4.98;84.30;96165.94;4814722;29;20034;-94
2021/05/21 01:01:57;;;;;;;8.57;5.30;;;;;;;-145.61;100.00;68426.72;4814631;29;20510;-94
2021/05/21 01:04:23;;;;;;;7.57;5.53;;;;;;;-145.61;100.00;68426.72;4814822;29;20086;-95
2021/05/21 01:06:48;;;;;;;8.48;5.88;;;;;;;-145.61;100.00;68426.72;4814593;29;20419;-94
2021/05/21 01:09:14;;;;;;;6.53;5.32;;;;;;;4.98;84.30;96165.94;4814617;29;20073;-96
2021/05/21 01:11:39;;;;;;;7.45;5.70;;;;;;;4.98;84.30;96165.94;4814683;29;20034;-95
2021/05/21 01:14:05;;;;;;;8.95;6.13;;;;;;;4.98;84.30;96165.94;4813689;29;20026;-96
2021/05/21 01:16:31;;;;;;;7.72;5.53;;;;;;;4.98;84.30;96165.94;4814555;29;20121;-94
2021/05/21 01:19:02;;;;;;;9.30;5.50;;;;;;;-145.61;100.00;68426.72;4814313;29;20034;-94
2021/05/21 01:21:30;;;;;;;7.78;5.50;;;;;;;4.98;84.30;96165.94;4814429;29;20027;-95
2021/05/21 01:23:55;;;;;;;8.35;4.90;;;;;;;-145.61;100.00;68426.72;4814437;29;20130;-95
2021/05/21 01:26:21;;;;;;;7.22;4.90;;;;;;;-145.61;100.00;68426.72;4814247;29;20125;-95
2021/05/21 01:28:47;;;;;;;6.30;5.20;;;;;;;4.98;84.30;96165.94;4814310;29;20041;-94
2021/05/21 01:31:12;;;;;;;6.38;4.78;;;;;;;4.98;84.30;96165.94;4814135;29;20033;-96
2021/05/21 01:33:38;;;;;;;9.23;5.22;;;;;;;4.57;83.61;96204.25;4814318;29;20037;-93
2021/05/21 01:36:04;;;;;;;6.82;4.63;;;;;;;4.57;83.61;96204.25;4814189;29;20026;-93
2021/05/21 01:38:29;;;;;;;9.32;5.07;;;;;;;4.57;83.61;96204.25;4814075;29;20439;-94
2021/05/21 01:40:57;;;;;;;8.90;4.97;;;;;;;4.99;86.81;96267.78;4814005;29;20041;-93
2021/05/21 01:43:23;;;;;;;10.07;5.30;;;;;;;4.70;84.33;96232.00;4813975;29;20034;-94
2021/05/21 01:45:48;;;;;;;6.07;5.00;;;;;;;-145.61;100.00;68426.72;4813844;29;20133;-94
2021/05/21 01:48:14;;;;;;;10.48;5.03;;;;;;;4.66;84.78;96218.63;4814643;29;20057;-96
2021/05/21 01:50:40;;;;;;;6.55;4.40;;;;;;;4.66;84.78;96218.63;4813902;29;20408;-94
2021/05/21 01:53:06;;;;;;;11.43;4.68;;;;;;;4.66;84.78;96218.63;4814008;29;20030;-95
2021/05/21 01:55:32;;;;;;;6.95;4.88;;;;;;;4.66;84.78;96218.63;4813925;29;20423;-94
2021/05/21 01:57:58;;;;;;;5.70;4.63;;;;;;;4.82;84.95;96252.09;4813807;29;20067;-93
2021/05/21 02:00:24;;;;;;;8.15;4.72;;;;;;;-145.61;100.00;68426.72;4813697;29;20030;-93
2021/05/21 02:02:49;;;;;;;8.13;4.88;;;;;;;4.82;84.95;96252.09;4813763;29;20074;-95
2021/05/21 02:05:15;;;;;;;11.55;4.65;;;;;;;-145.61;100.00;68426.72;4813679;29;20034;-94
2021/05/21 02:07:40;;;;;;;6.75;4.82;;;;;;;4.82;84.95;96252.09;4813540;29;20491;-95
2021/05/21 02:10:09;;;;;;;6.13;5.13;;;;;;;4.82;84.95;96252.09;4813631;29;20121;-94
2021/05/21 02:12:36;;;;;;;9.52;5.18;;;;;;;4.82;84.95;96252.09;4813441;29;20031;-96
2021/05/21 02:15:07;;;;;;;8.57;5.70;;;;;;;4.82;84.95;96252.09;4813448;29;20042;-95
2021/05/21 02:17:33;;;;;;;10.60;5.55;;;;;;;4.82;84.95;96252.09;4813470;29;20033;-94
2021/05/21 02:20:00;;;;;;;7.85;4.90;;;;;;;4.82;84.95;96252.09;4813386;29;20026;-93
2021/05/21 02:22:27;;;;;;;7.70;5.18;;;;;;;4.08;84.85;96161.97;4813270;29;20413;-95
2021/05/21 02:24:54;;;;;;;6.53;5.30;;;;;;;4.08;84.85;96161.97;4813227;29;20030;-95
2021/05/21 02:27:21;;;;;;;22.73;6.00;;;;;;;4.08;84.85;96161.97;4813085;29;20030;-95
2021/05/21 02:29:46;;;;;;;12.55;5.15;;;;;;;4.08;84.85;96161.97;4813112;29;20039;-94
2021/05/21 02:32:12;;;;;;;9.00;5.45;;;;;;;4.25;84.21;96200.38;4813163;29;20107;-94
2021/05/21 02:34:38;;;;;;;7.53;4.80;;;;;;;4.11;84.32;96181.91;4813117;29;20389;-93
2021/05/21 02:37:03;;;;;;;7.03;5.15;;;;;;;4.08;85.90;96180.03;4813109;29;20434;-95
2021/05/21 02:39:29;;;;;;;8.35;4.78;;;;;;;4.08;85.90;96180.03;4812956;29;20117;-95
2021/05/21 02:41:55;;;;;;;6.13;4.30;;;;;;;4.52;84.96;96250.47;4812975;29;20031;-94
2021/05/21 02:44:21;;;;;;;6.68;4.45;;;;;;;4.52;84.96;96250.47;4812947;29;20026;-94
2021/05/21 02:46:47;;;;;;;7.05;4.47;;;;;;;4.52;84.96;96250.47;4812708;29;20056;-94
2021/05/21 02:49:19;;;;;;;6.43;4.30;;;;;;;4.52;84.96;96250.47;4813050;29;20034;-94
2021/05/21 02:51:46;;;;;;;6.18;4.50;;;;;;;4.22;84.02;96213.91;4813174;29;20038;-94
2021/05/21 02:54:11;;;;;;;6.30;4.60;;;;;;;4.22;84.02;96213.91;4812965;29;20038;-94
2021/05/21 02:56:37;;;;;;;9.88;4.93;;;;;;;-145.61;100.00;68426.72;4813014;29;20026;-94
2021/05/21 02:59:03;;;;;;;11.25;4.95;;;;;;;4.22;84.02;96213.91;4812987;29;20117;-95
2021/05/21 03:01:29;;;;;;;11.48;5.00;;;;;;;4.01;84.85;96196.34;4812850;29;20400;-95
2021/05/21 03:03:54;;;;;;;9.45;5.07;;;;;;;3.93;84.81;96187.66;4812956;29;20040;-94
2021/05/21 03:06:20;;;;;;;6.15;5.00;;;;;;;4.15;85.33;96196.75;4812832;29;20041;-95
2021/05/21 03:08:45;;;;;;;6.38;4.65;;;;;;;4.15;85.33;96196.75;4812773;29;20493;-94
2021/05/21 03:11:11;;;;;;;8.93;4.72;;;;;;;4.15;85.33;96196.75;4812660;29;20114;-96
2021/05/21 03:13:36;;;;;;;11.25;5.63;;;;;;;4.15;85.33;96196.75;4812763;29;20415;-93
2021/05/21 03:16:02;;;;;;;9.32;5.10;;;;;;;4.26;84.76;96233.41;4812739;29;20038;-95
2021/05/21 03:18:27;;;;;;;7.72;4.93;;;;;;;4.07;84.33;96202.72;4812413;29;20038;-94
2021/05/21 03:20:53;;;;;;;9.32;5.18;;;;;;;4.07;84.33;96202.72;4812564;29;20082;-94
2021/05/21 03:23:20;;;;;;;7.55;4.55;;;;;;;4.07;84.33;96202.72;4812346;29;20034;-96
2021/05/21 03:25:46;;;;;;;7.15;4.82;;;;;;;3.91;85.38;96163.16;4812195;29;20095;-95
2021/05/21 03:28:12;;;;;;;8.20;4.90;;;;;;;4.72;86.31;96254.59;4812256;29;20038;-94
2021/05/21 03:30:39;;;;;;;11.13;5.10;;;;;;;4.72;86.31;96254.59;4812364;29;20038;-94
2021/05/21 03:33:06;;;;;;;7.28;5.43;;;;;;;-145.61;100.00;68426.72;4812474;29;20043;-95
2021/05/21 03:35:35;;;;;;;7.80;5.13;;;;;;;-145.61;100.00;68426.72;4811838;29;20327;-96
2021/05/21 03:38:02;;;;;;;6.85;5.03;;;;;;;-145.61;100.00;68426.72;4812414;29;20022;-96
2021/05/21 03:40:28;;;;;;;7.85;5.43;;;;;;;-145.61;100.00;68426.72;4812308;29;20034;-94
2021/05/21 03:42:54;;;;;;;9.13;5.35;;;;;;;-145.61;100.00;68426.72;4812056;29;20033;-94
2021/05/21 03:45:19;;;;;;;10.02;5.85;;;;;;;4.72;86.31;96254.59;4812042;29;20458;-94
2021/05/21 03:47:45;;;;;;;10.25;5.57;;;;;;;4.72;86.31;96254.59;4812355;29;20076;-94
2021/05/21 03:50:12;;;;;;;8.40;5.53;;;;;;;4.72;86.31;96254.59;4812047;29;20038;-94
2021/05/21 03:52:38;;;;;;;10.43;5.68;;;;;;;4.72;86.31;96254.59;4812105;29;20031;-94
2021/05/21 03:55:04;;;;;;;8.68;5.80;;;;;;;4.36;100.00;96155.16;4812409;29;20033;-96
2021/05/21 03:57:30;;;;;;;8.57;5.95;;;;;;;4.36;84.60;96155.16;4812007;29;20113;-94
2021/05/21 03:59:56;;;;;;;7.75;5.53;;;;;;;4.77;83.68;96202.22;4813898;29;20117;-94
2021/05/21 04:02:24;;;;;;;10.50;6.03;;;;;;;4.77;83.68;96202.22;4817270;29;20049;-94
2021/05/21 04:04:51;;;;;;;6.32;5.30;;;;;;;4.77;83.68;96202.22;4815124;29;20034;-94
2021/05/21 04:07:18;;;;;;;8.45;5.80;;;;;;;-145.61;100.00;68426.72;4811727;29;20041;-93
2021/05/21 04:09:43;;;;;;;11.13;6.60;;;;;;;4.77;83.68;96202.22;4811827;29;20175;-95
2021/05/21 04:12:09;;;;;;;10.65;6.22;;;;;;;4.77;84.73;96212.22;4812011;29;20034;-94
2021/05/21 04:14:34;;;;;;;10.90;5.90;;;;;;;4.77;84.73;96212.22;4812008;29;20034;-93
2021/05/21 04:17:00;;;;;;;8.20;5.70;;;;;;;4.77;84.73;96212.22;4811748;29;20027;-93
2021/05/21 04:19:26;;;;;;;8.60;6.18;;;;;;;4.77;84.73;96212.22;4811788;29;20034;-92
2021/05/21 04:21:51;;;;;;;8.60;5.68;;;;;;;-145.61;100.00;68426.72;4811702;29;20145;-92
2021/05/21 04:24:17;;;;;;;8.35;6.20;;;;;;;4.77;84.73;96212.22;4811578;29;20068;-95
2021/05/21 04:26:43;;;;;;;11.63;6.65;;;;;;;5.22;84.09;96263.41;4811765;29;20313;-94
2021/05/21 04:29:08;;;;;;;7.40;6.00;;;;;;;5.22;84.09;96263.41;4812247;29;20103;-95
2021/05/21 04:31:36;;;;;;;13.77;6.10;;;;;;;5.22;84.09;96263.41;4811807;29;20113;-95
2021/05/21 04:34:02;;;;;;;7.75;6.00;;;;;;;-145.61;100.00;68426.72;4811743;29;20032;-94
2021/05/21 04:36:28;;;;;;;14.50;6.03;;;;;;;-145.61;100.00;68426.72;4811878;29;20117;-94
2021/05/21 04:38:54;;;;;;;9.77;5.90;;;;;;;-145.61;100.00;68426.72;4812253;29;20041;-94
2021/05/21 04:41:19;;;;;;;7.78;5.40;;;;;;;-145.61;100.00;68426.72;4813269;29;20301;-96
2021/05/21 04:43:46;;;;;;;7.22;5.97;;;;;;;-145.61;100.00;68426.72;4811995;29;20064;-93
2021/05/21 04:46:12;;;;;;;8.43;5.50;;;;;;;-145.61;100.00;68426.72;4811473;29;20051;-95
2021/05/21 04:48:38;;;;;;;10.27;7.53;;;;;;;-145.61;100.00;68426.72;4813319;29;20049;-96
2021/05/21 04:51:04;;;;;;;12.18;6.72;;;;;;;-145.61;100.00;68426.72;4815569;29;20031;-95
2021/05/21 04:53:29;;;;;;;11.02;7.20;;;;;;;-145.61;100.00;68426.72;4814922;29;20062;-93
2021/05/21 04:55:55;;;;;;;11.82;6.82;;;;;;;-145.61;100.00;68426.72;4815195;29;20034;-94
2021/05/21 04:58:21;;;;;;;10.75;6.88;;;;;;;-145.61;100.00;68426.72;4816016;29;20376;-93
2021/05/21 05:00:47;;;;;;;7.55;6.13;;;;;;;-145.61;100.00;68426.72;4815377;29;20074;-93
2021/05/21 05:03:17;;;;;;;8.80;6.30;;;;;;;-145.61;100.00;68426.72;4814691;29;20038;-93
2021/05/21 05:05:44;;;;;;;8.52;6.05;;;;;;;-145.61;100.00;68426.72;4805291;29;20087;-93
2021/05/21 05:08:10;;;;;;;11.93;6.63;;;;;;;-145.61;100.00;68426.72;4807321;29;20125;-94
2021/05/21 05:10:36;;;;;;;9.73;6.65;;;;;;;-145.61;100.00;68426.72;4814666;29;20035;-92
2021/05/21 05:13:05;;;;;;;9.27;6.20;;;;;;;-145.61;100.00;68426.72;4815553;29;20034;-96
2021/05/21 05:15:35;;;;;;;7.28;6.32;;;;;;;-145.61;100.00;68426.72;4816006;29;20036;-93
2021/05/21 05:18:02;;;;;;;9.43;6.70;;;;;;;-145.61;100.00;68426.72;4822802;29;20070;-95
2021/05/21 05:20:28;;;;;;;9.63;7.35;;;;;;;-145.61;100.00;68426.72;4816192;29;20037;-95
2021/05/21 05:22:55;;;;;;;13.90;7.45;;;;;;;-145.61;100.00;68426.72;4812577;29;20038;-96
2021/05/21 05:25:21;;;;;;;12.13;7.82;;;;;;;-145.61;100.00;68426.72;4799411;29;20054;-94
2021/05/21 05:27:48;;;;;;;8.00;7.20;;;;;;;-145.61;100.00;68426.72;4804334;29;20030;-94
2021/05/21 05:30:14;;;;;;;32.10;8.52;;;;;;;-145.61;100.00;68426.72;4832595;29;20046;-95
2021/05/21 05:32:39;;;;;;;18.17;8.15;;;;;;;-145.61;100.00;68426.72;4831381;29;20110;-92
2021/05/21 05:35:05;;;;;;;11.02;7.10;;;;;;;-145.61;100.00;68426.72;4814982;29;20354;-91
2021/05/21 05:37:31;;;;;;;10.52;7.25;;;;;;;-145.61;100.00;68426.72;4814426;29;20030;-94
2021/05/21 05:39:57;;;;;;;12.57;7.78;;;;;;;-145.61;100.00;68426.72;4814106;29;20034;-94
2021/05/21 05:42:22;;;;;;;9.52;8.07;;;;;;;-145.61;100.00;68426.72;4813939;29;20324;-95
2021/05/21 05:44:48;;;;;;;15.40;11.52;;;;;;;-145.61;100.00;68426.72;4798006;29;20035;-94
2021/05/21 05:47:14;;;;;;;18.17;11.70;;;;;;;-145.61;100.00;68426.72;4795634;29;20042;-93
2021/05/21 05:49:39;;;;;;;16.08;12.07;;;;;;;-145.61;100.00;68426.72;4795961;29;20023;-94
2021/05/21 05:52:05;;;;;;;16.55;12.75;;;;;;;-145.61;100.00;68426.72;4795967;29;20129;-93
2021/05/21 05:54:30;;;;;;;17.85;12.68;;;;;;;-145.61;100.00;68426.72;4795659;29;20088;-93
2021/05/21 05:56:56;;;;;;;17.35;11.65;;;;;;;-145.61;100.00;68426.72;4795768;29;20332;-94
2021/05/21 05:59:24;;;;;;;20.17;13.93;;;;;;;-145.61;100.00;68426.72;4795467;29;20027;-93
2021/05/21 06:01:50;;;;;;;18.70;13.82;;;;;;;-145.61;100.00;68426.72;4795368;29;20096;-94
2021/05/21 06:04:15;;;;;;;18.33;12.88;;;;;;;-145.61;100.00;68426.72;4795469;29;20031;-93
2021/05/21 06:06:41;;;;;;;14.80;11.90;;;;;;;-145.61;100.00;68426.72;4795474;29;20506;-95
2021/05/21 06:09:08;;;;;;;17.70;11.45;;;;;;;-145.61;100.00;68426.72;4795521;29;20039;-95
2021/05/21 06:11:34;;;;;;;13.25;10.05;;;;;;;-145.61;100.00;68426.72;4795430;29;20027;-94
2021/05/21 06:13:59;;;;;;;13.80;9.73;;;;;;;-145.61;100.00;68426.72;4796497;29;20361;-93
2021/05/21 06:16:25;;;;;;;15.73;9.90;;;;;;;-145.61;100.00;68426.72;4795341;29;20027;-94
2021/05/21 06:18:50;;;;;;;14.40;8.70;;;;;;;-145.61;100.00;68426.72;4809470;29;20027;-93
2021/05/21 06:21:16;;;;;;;16.20;9.30;;;;;;;-145.61;100.00;68426.72;4810813;29;20038;-93
2021/05/21 06:23:44;;;;;;;14.18;9.70;;;;;;;-145.61;100.00;68426.72;4795170;29;20039;-92
2021/05/21 06:26:18;;;;;;;14.60;9.60;;;;;;;-145.61;100.00;68426.72;4824222;29;20022;-93
2021/05/21 06:28:45;;;;;;;11.15;7.70;;;;;;;-145.61;100.00;68426.72;4815133;29;20030;-93
2021/05/21 06:31:10;;;;;;;10.02;8.20;;;;;;;-145.61;100.00;68426.72;4813139;29;20389;-93
2021/05/21 06:33:36;;;;;;;11.30;7.80;;;;;;;-145.61;100.00;68426.72;4813050;29;20168;-94
2021/05/21 06:36:02;;;;;;;8.35;7.03;;;;;;;-145.61;100.00;68426.72;4813061;29;20034;-93
2021/05/21 06:38:28;;;;;;;10.50;7.72;;;;;;;-145.61;100.00;68426.72;4812967;29;20035;-94
2021/05/21 06:40:53;;;;;;;11.13;7.43;;;;;;;-145.61;100.00;68426.72;4813066;29;20129;-94
2021/05/21 06:43:19;;;;;;;10.65;7.32;;;;;;;-145.61;100.00;68426.72;4812878;29;20134;-94
2021/05/21 06:45:46;;;;;;;12.73;6.68;;;;;;;-145.61;100.00;68426.72;4812743;29;20444;-95
2021/05/21 06:48:11;;;;;;;7.85;6.75;;;;;;;-145.61;100.00;68426.72;4813410;29;20030;-95
2021/05/21 06:50:38;;;;;;;8.18;6.20;;;;;;;-145.61;100.00;68426.72;4805616;29;20530;-93
2021/05/21 06:53:04;;;;;;;10.48;6.38;;;;;;;-145.61;100.00;68426.72;4812815;29;20058;-93
2021/05/21 06:55:29;;;;;;;10.32;6.95;;;;;;;-145.61;100.00;68426.72;4812769;29;20069;-94
2021/05/21 06:57:55;;;;;;;8.48;6.50;;;;;;;-145.61;100.00;68426.72;4812617;29;20117;-94
2021/05/21 07:00:20;;;;;;;7.97;6.50;;;;;;;-145.61;100.00;68426.72;4812666;29;20027;-95
2021/05/21 07:02:46;;;;;;;8.73;6.00;;;;;;;-145.61;100.00;68426.72;4812733;29;20209;-95
2021/05/21 07:05:13;;;;;;;9.15;6.05;;;;;;;-145.61;100.00;68426.72;4812766;29;20030;-94
2021/05/21 07:07:42;;;;;;;6.63;5.68;;;;;;;-145.61;100.00;68426.72;4812811;29;20031;-95
2021/05/21 07:10:09;;;;;;;7.60;6.07;;;;;;;-145.61;100.00;68426.72;4813562;29;20045;-94
2021/05/21 07:12:34;;;;;;;8.90;6.28;;;;;;;-145.61;100.00;68426.72;4812233;29;20033;-94
2021/05/21 07:15:00;;;;;;;8.68;5.80;;;;;;;-145.61;100.00;68426.72;4812524;29;20030;-94
2021/05/21 07:17:26;;;;;;;7.50;5.60;;;;;;;-145.61;100.00;68426.72;4812549;29;20026;-93
2021/05/21 07:19:52;;;;;;;8.10;5.82;;;;;;;-145.61;100.00;68426.72;4813229;29;20058;-93
2021/05/21 07:22:18;;;;;;;8.50;5.97;;;;;;;-145.61;100.00;68426.72;4812517;29;20127;-94
2021/05/21 07:24:43;;;;;;;9.20;5.53;;;;;;;5.22;84.09;96263.41;4825111;29;20336;-95
2021/05/21 07:27:09;;;;;;;8.43;6.10;;;;;;;5.22;84.09;96263.41;4831105;29;20117;-95
2021/05/21 07:29:35;;;;;;;7.65;5.82;;;;;;;5.22;84.09;96263.41;4845451;29;20026;-95
2021/05/21 07:32:00;;;;;;;8.38;5.75;;;;;;;-145.61;100.00;68426.72;4831844;29;20117;-95
2021/05/21 07:34:26;;;;;;;8.32;6.03;;;;;;;-145.61;100.00;68426.72;4831522;29;20152;-94
2021/05/21 07:36:51;;;;;;;7.55;6.00;;;;;;;5.22;84.09;96263.41;4831484;29;20022;-95
2021/05/21 07:39:17;;;;;;;16.75;6.53;;;;;;;-145.61;100.00;68426.72;4832986;29;20030;-94
2021/05/21 07:41:43;;;;;;;9.95;6.43;;;;;;;5.22;84.09;96263.41;4830754;29;20411;-95
2021/05/21 07:44:10;;;;;;;10.95;5.85;;;;;;;5.22;84.09;96263.41;4817573;29;20121;-95
2021/05/21 07:46:38;;;;;;;12.10;6.00;;;;;;;5.22;84.09;96263.41;4817454;29;20057;-96
2021/05/21 07:49:55;;;;;;;11.52;6.07;;;;;;;12.41;63.31;96095.53;4797555;29;20054;-93
2021/05/21 07:52:20;;;;;;;7.20;5.20;;;;;;;12.20;62.64;96051.97;4830912;29;20026;-94
2021/05/21 07:54:46;;;;;;;8.23;5.28;;;;;;;12.17;61.72;96039.28;4830892;29;20067;-94
2021/05/21 07:57:12;;;;;;;7.93;5.60;;;;;;;12.21;63.31;96025.50;4830470;29;20087;-96
2021/05/21 07:59:38;;;;;;;30.08;20.40;;;;;;;12.42;62.79;96029.72;4830421;29;20124;-95
2021/05/21 08:02:04;;;;;;;14.77;11.18;;;;;;;12.57;62.32;96032.38;4830380;29;20034;-95
2021/05/21 08:04:29;;;;;;;7.15;5.15;;;;;;;12.88;60.70;96048.03;4830392;29;20053;-95
2021/05/21 08:06:55;;;;;;;7.82;4.85;;;;;;;12.82;60.89;96011.81;4830204;29;20101;-94
2021/05/21 08:09:20;;;;;;;9.73;4.82;;;;;;;12.94;61.31;96035.22;4830275;29;20419;-94
2021/05/21 08:15:08;;;;;;;5.25;3.35;;;;;;;13.06;59.05;96045.00;4846602;29;20056;-93
2021/05/21 08:17:35;;;;;;;5.15;2.90;;;;;;;13.07;57.62;96037.56;4830035;29;20026;-93
2021/05/21 08:20:02;;;;;;;5.68;3.72;;;;;;;13.12;58.04;96036.88;4815296;29;20023;-94
2021/05/21 08:22:28;;;;;;;7.00;3.60;;;;;;;13.05;58.73;95997.19;4813620;29;20068;-94
2021/05/21 08:24:53;;;;;;;5.30;3.20;;;;;;;13.42;58.10;96029.22;4816139;29;20435;-94
2021/05/21 08:27:19;;;;;;;5.68;2.85;;;;;;;13.70;56.94;96061.44;4815468;29;20038;-94
2021/05/21 08:29:44;;;;;;;6.63;2.30;;;;;;;13.56;52.53;96011.97;4815566;29;20091;-95
2021/05/21 08:32:10;;;;;;;4.35;2.90;;;;;;;13.66;52.89;96019.97;4815467;29;20062;-94
2021/05/21 08:34:35;;;;;;;3.33;2.30;;;;;;;13.83;50.45;96016.13;4815950;29;20087;-94
2021/05/21 08:37:01;;;;;;;3.22;1.73;;;;;;;13.57;48.70;95944.50;4815581;29;20030;-96
2021/05/21 08:39:27;;;;;;;2.40;1.95;;;;;;;13.98;50.54;95994.13;4815978;29;20062;-96
2021/05/21 08:41:58;;;;;;;2.95;2.20;;;;;;;14.21;50.61;96035.19;4816433;29;20030;-94
2021/05/21 08:44:26;;;;;;;3.78;2.05;;;;;;;14.11;52.72;95999.91;4818361;29;20059;-94
2021/05/21 08:46:52;;;;;;;3.80;1.80;;;;;;;14.07;47.64;95982.25;4814979;29;20046;-92
2021/05/21 08:49:19;;;;;;;3.70;2.00;;;;;;;14.31;48.70;96003.72;4815381;29;20031;-94
2021/05/21 08:51:47;;;;;;;2.70;1.90;;;;;;;14.50;48.48;95996.63;4819722;29;20030;-94
2021/05/21 08:54:14;;;;;;;2.90;1.50;;;;;;;14.57;51.09;95973.53;4834674;29;20419;-94
2021/05/21 08:56:43;;;;;;;4.63;1.52;;;;;;;14.57;49.46;95968.81;4855281;29;20042;-95
2021/05/21 08:59:09;;;;;;;4.30;1.92;;;;;;;14.80;48.00;96020.78;4818558;29;20034;-94
2021/05/21 09:02:10;;;;;;;4.55;1.60;;;;;;;14.88;48.54;96021.81;4810490;29;20117;-92
2021/05/21 09:04:53;;;;;;;2.90;1.50;;;;;;;14.61;50.57;95966.59;4798330;29;20144;-94
2021/05/21 09:07:26;;;;;;;4.35;1.67;;;;;;;15.08;49.94;96021.59;4814695;29;20079;-92
2021/05/21 09:09:52;;;;;;;1.67;1.20;;;;;;;14.76;45.42;95941.03;4814757;29;20047;-93
2021/05/21 09:12:19;;;;;;;3.50;1.20;;;;;;;15.16;45.35;95989.78;4814788;29;20392;-93
2021/05/21 09:15:30;;;;;;;1.20;1.00;;;;;;;15.29;43.79;96000.25;4814949;29;20037;-92
2021/05/21 09:18:00;;;;;;;1.83;1.10;;;;;;;15.29;44.72;96011.19;4810384;29;20045;-94
2021/05/21 09:24:02;;;;;;;2.03;1.13;;;;;;;15.05;46.14;95948.75;4830518;29;20044;-93
2021/05/21 09:26:48;;;;;;;2.72;1.33;;;;;;;15.54;45.79;96006.69;4814267;29;20038;-93
2021/05/21 09:29:15;;;;;;;1.70;1.10;;;;;;;15.43;46.84;95968.38;4814264;29;20042;-92
2021/05/21 09:31:48;;;;;;;1.45;0.77;;;;;;;15.61;42.23;96006.19;4814262;29;20036;-93
2021/05/21 09:34:28;;;;;;;0.98;0.77;;;;;;;16.09;44.97;96012.63;4833949;29;20062;-93
2021/05/21 09:36:54;;;;;;;2.47;1.10;;;;;;;15.90;44.71;95957.63;4838549;29;20056;-93
2021/05/21 09:39:19;;;;;;;2.88;1.00;;;;;;;16.04;43.69;95983.25;4850538;29;20061;-93
2021/05/21 09:41:49;;;;;;;2.40;1.08;;;;;;;15.64;45.59;95920.34;4850902;29;20044;-93
2021/05/21 09:44:15;;;;;;;1.90;1.23;;;;;;;16.29;45.16;95982.13;4838244;29;20026;-93
2021/05/21 09:46:48;;;;;;;1.75;1.35;;;;;;;15.71;43.36;95906.19;4850066;29;20511;-93
2021/05/21 09:49:30;;;;;;;2.83;1.80;;;;;;;16.01;46.40;95979.50;4838139;29;20034;-93
2021/05/21 09:51:58;;;;;;;50.83;32.70;;;;;;;16.54;45.44;95979.56;4832002;29;20086;-92
2021/05/21 09:54:44;;;;;;;6.53;2.97;;;;;;;16.64;42.43;95923.19;4832022;29;20065;-93
2021/05/21 09:57:12;;;;;;;5.78;1.40;;;;;;;16.97;42.37;95925.72;4813892;29;20036;-91
2021/05/21 09:59:38;;;;;;;3.00;1.42;;;;;;;17.44;40.23;95972.22;4822943;29;20380;-93
2021/05/21 10:02:28;;;;;;;3.85;1.20;;;;;;;17.07;40.74;95934.38;4831722;29;20030;-93
2021/05/21 10:04:54;;;;;;;3.03;1.20;;;;;;;17.41;42.64;95969.75;4811324;29;20120;-92
2021/05/21 10:07:21;;;;;;;2.65;1.10;;;;;;;16.98;41.84;95908.00;4850075;29;20044;-94
2021/05/21 10:09:47;;;;;;;2.45;1.60;;;;;;;17.35;43.58;95955.34;4848226;29;20033;-93
2021/05/21 10:12:13;;;;;;;3.22;1.35;;;;;;;16.59;42.40;95880.09;4836576;29;20459;-92
2021/05/21 10:14:41;;;;;;;2.03;1.27;;;;;;;17.08;43.38;95954.31;4831666;29;20026;-92
2021/05/21 10:17:09;;;;;;;3.53;1.40;;;;;;;17.06;44.55;95954.09;4831646;29;20055;-92
2021/05/21 10:19:36;;;;;;;2.78;1.13;;;;;;;16.69;44.16;95914.19;4831633;29;20029;-93
2021/05/21 10:22:03;;;;;;;1.55;0.85;;;;;;;16.45;43.05;95868.22;4828647;29;20106;-91
2021/05/21 10:24:33;;;;;;;1.50;0.88;;;;;;;16.83;42.33;95882.19;4813354;29;20125;-93
2021/05/21 10:27:01;;;;;;;3.58;1.10;;;;;;;16.75;42.16;95914.91;4833884;29;20042;-92
2021/05/21 10:29:31;;;;;;;2.53;0.70;;;;;;;17.00;41.21;95908.25;4831506;29;20085;-92
2021/05/21 10:32:16;;;;;;;2.30;1.10;;;;;;;17.56;43.26;95898.75;4831399;29;20502;-93
2021/05/21 10:34:49;;;;;;;1.33;1.13;;;;;;;17.82;42.32;95879.03;4831363;29;20038;-92
2021/05/21 10:37:30;;;;;;;7.00;1.02;;;;;;;18.41;40.69;95909.53;4831449;29;20416;-93
2021/05/21 10:40:27;;;;;;;1.50;1.08;;;;;;;18.55;39.91;95880.84;4831272;29;20419;-91
2021/05/21 10:42:53;;;;;;;1.80;0.95;;;;;;;18.44;40.94;95854.25;4831267;29;20427;-93
2021/05/21 10:45:20;;;;;;;3.10;1.35;;;;;;;18.58;39.03;95855.03;4830377;29;20033;-92
2021/05/21 10:48:09;;;;;;;4.15;0.90;;;;;;;18.96;35.90;95887.97;4830697;29;20060;-92
2021/05/21 10:50:39;;;;;;;2.50;0.90;;;;;;;18.52;35.67;95829.63;4831143;29;20486;-93
2021/05/21 10:53:09;;;;;;;1.73;0.80;;;;;;;18.05;34.85;95822.53;4830610;29;20423;-92
2021/05/21 10:55:43;;;;;;;0.77;0.70;;;;;;;18.96;38.18;95879.72;4813395;29;20038;-95
2021/05/21 10:58:16;;;;;;;1.92;0.80;;;;;;;19.02;37.05;95806.13;4817262;29;20034;-92
2021/05/21 11:01:02;;;;;;;2.60;1.13;;;;;;;19.63;37.61;95840.78;4828934;29;20036;-93
2021/05/21 11:03:29;;;;;;;1.95;0.90;;;;;;;19.21;38.57;95828.78;4830823;29;20075;-92
2021/05/21 11:06:20;;;;;;;2.78;1.10;;;;;;;19.52;37.07;95881.53;4830661;29;20069;-93
2021/05/21 11:08:46;;;;;;;1.80;0.95;;;;;;;18.80;38.11;95818.22;4830832;29;20038;-92
2021/05/21 11:11:13;;;;;;;1.67;0.82;;;;;;;19.29;39.95;95872.94;4830899;29;20037;-91
2021/05/21 11:13:38;;;;;;;1.55;0.90;;;;;;;19.16;36.11;95818.59;4826016;29;20331;-92
2021/05/21 11:16:11;;;;;;;3.05;0.90;;;;;;;18.76;36.90;95810.28;4812487;29;20028;-93
2021/05/21 11:18:46;;;;;;;2.30;0.80;;;;;;;19.55;38.02;95872.97;4812563;29;20037;-92
2021/05/21 11:21:17;;;;;;;3.25;0.93;;;;;;;18.71;37.91;95794.63;4812565;29;20035;-91
2021/05/21 11:23:46;;;;;;;2.05;0.60;;;;;;;19.07;36.34;95858.31;4830217;29;20030;-94
2021/05/21 11:26:17;;;;;;;1.10;0.70;;;;;;;19.77;38.12;95854.56;4814326;29;20066;-92
2021/05/21 11:28:58;;;;;;;1.95;0.68;;;;;;;19.47;32.37;95803.28;4815748;29;20460;-93
2021/05/21 11:31:25;;;;;;;2.20;0.75;;;;;;;19.95;32.37;95850.19;4844382;29;20033;-91
2021/05/21 11:33:52;;;;;;;0.98;0.52;;;;;;;20.24;34.18;95804.22;4840138;29;20033;-93